createdAt,value
2019-05-14T00:03:03.538Z,1.70
2019-05-14T00:05:55.247Z,1.73
2019-05-14T00:08:55.801Z,2.00
2019-05-14T00:12:22.861Z,2.03
2019-05-14T00:15:21.651Z,1.43
2019-05-14T00:18:27.402Z,2.00
2019-05-14T00:21:15.177Z,1.40
2019-05-14T00:24:15.232Z,1.50
2019-05-14T00:26:51.731Z,1.30
2019-05-14T00:30:13.554Z,1.77
2019-05-14T00:33:43.657Z,1.50
2019-05-14T00:37:03.654Z,1.70
2019-05-14T00:40:32.510Z,1.70
2019-05-14T00:43:16.945Z,1.60
2019-05-14T00:46:14.623Z,1.60
2019-05-14T00:49:21.209Z,1.87
2019-05-14T00:52:33.202Z,1.73
2019-05-14T00:55:51.652Z,2.00
2019-05-14T00:58:35.614Z,1.53
2019-05-14T01:01:17.264Z,1.80
2019-05-14T01:04:14.601Z,2.10
2019-05-14T01:07:42.233Z,1.77
2019-05-14T01:10:26.608Z,2.00
2019-05-14T01:13:21.703Z,2.00
2019-05-14T01:16:48.338Z,2.10
2019-05-14T01:19:55.236Z,2.20
2019-05-14T01:23:02.373Z,2.00
2019-05-14T01:26:21.758Z,1.87
2019-05-14T01:29:24.176Z,1.80
2019-05-14T01:32:28.638Z,1.57
2019-05-14T01:35:22.204Z,1.93
2019-05-14T01:48:35.028Z,1.97
2019-05-14T01:55:14.320Z,1.40
2019-05-14T02:02:11.491Z,1.83
2019-05-14T02:08:21.580Z,1.80
2019-05-14T02:11:44.447Z,1.67
2019-05-14T02:17:54.899Z,1.80
2019-05-14T02:24:05.297Z,1.50
2019-05-14T02:27:28.141Z,1.70
2019-05-14T02:33:39.729Z,1.40
2019-05-14T02:37:02.705Z,1.73
2019-05-14T02:40:29.921Z,2.00
2019-05-14T02:42:59.465Z,1.80
2019-05-14T02:45:30.313Z,2.00
2019-05-14T02:48:00.654Z,2.00
2019-05-14T02:50:30.194Z,2.00
2019-05-14T02:53:00.185Z,1.80
2019-05-14T02:55:29.961Z,1.50
2019-05-14T02:58:00.073Z,1.43
2019-05-14T03:00:30.267Z,1.83
2019-05-14T03:03:00.003Z,1.90
2019-05-14T03:05:29.847Z,1.97
2019-05-14T03:08:00.282Z,1.87
2019-05-14T03:10:30.433Z,1.90
2019-05-14T03:13:00.101Z,1.97
2019-05-14T03:15:34.805Z,1.70
2019-05-14T03:21:45.272Z,1.83
2019-05-14T03:27:55.958Z,2.10
2019-05-14T03:34:06.097Z,1.93
2019-05-14T03:37:30.885Z,1.73
2019-05-14T03:43:41.052Z,1.77
2019-05-14T03:47:05.592Z,1.60
2019-05-14T03:53:18.879Z,1.83
2019-05-14T03:59:29.328Z,1.80
2019-05-14T04:05:40.328Z,1.60
2019-05-14T04:09:03.722Z,1.80
2019-05-14T04:15:14.660Z,1.67
2019-05-14T04:17:45.218Z,1.50
2019-05-14T04:20:14.682Z,1.60
2019-05-14T04:22:49.957Z,1.73
2019-05-14T04:25:19.510Z,1.40
2019-05-14T04:27:52.101Z,1.60
2019-05-14T04:30:24.368Z,1.80
2019-05-14T04:32:59.205Z,1.60
2019-05-14T04:35:29.644Z,1.77
2019-05-14T04:37:58.908Z,1.60
2019-05-14T04:40:29.694Z,1.60
2019-05-14T04:42:59.285Z,1.80
2019-05-14T04:45:29.688Z,1.80
2019-05-14T04:48:00.187Z,1.57
2019-05-14T04:50:29.778Z,2.10
2019-05-14T04:53:00.055Z,2.20
2019-05-14T04:55:29.788Z,2.20
2019-05-14T04:57:59.347Z,2.13
2019-05-14T05:00:30.587Z,2.30
2019-05-14T05:03:00.214Z,1.80
2019-05-14T05:05:30.127Z,1.70
2019-05-14T05:08:00.649Z,1.53
2019-05-14T05:10:30.002Z,1.47
2019-05-14T05:13:00.446Z,1.60
2019-05-14T05:15:29.578Z,1.40
2019-05-14T05:17:59.148Z,1.33
2019-05-14T05:20:29.321Z,1.00
2019-05-14T05:22:59.176Z,1.70
2019-05-14T05:25:29.219Z,1.70
2019-05-14T05:27:59.718Z,1.50
2019-05-14T05:30:29.665Z,1.67
2019-05-14T05:32:59.683Z,1.60
2019-05-14T05:35:30.033Z,1.47
2019-05-14T05:37:59.411Z,1.70
2019-05-14T05:40:28.866Z,1.53
2019-05-14T05:42:58.374Z,1.60
2019-05-14T05:45:29.006Z,1.27
2019-05-14T05:48:01.488Z,1.40
2019-05-14T05:50:29.175Z,1.63
2019-05-14T05:52:59.008Z,1.40
2019-05-14T05:55:28.852Z,1.33
2019-05-14T05:58:02.220Z,1.70
2019-05-14T06:00:40.304Z,1.70
2019-05-14T06:03:11.788Z,1.53
2019-05-14T06:05:41.343Z,1.53
2019-05-14T06:08:11.570Z,1.40
2019-05-14T06:10:40.682Z,1.50
2019-05-14T06:13:09.930Z,1.10
2019-05-14T06:15:45.566Z,1.40
2019-05-14T06:18:17.350Z,1.70
2019-05-14T06:20:43.050Z,1.53
2019-05-14T06:23:12.295Z,1.30
2019-05-14T06:25:41.420Z,1.30
2019-05-14T06:28:11.602Z,1.73
2019-05-14T06:30:42.234Z,1.20
2019-05-14T06:33:11.737Z,1.43
2019-05-14T06:35:40.996Z,1.47
2019-05-14T06:38:10.455Z,1.30
2019-05-14T06:40:39.765Z,1.37
2019-05-14T06:43:09.234Z,1.43
2019-05-14T06:45:39.217Z,1.40
2019-05-14T06:48:08.809Z,1.30
2019-05-14T06:50:39.228Z,1.23
2019-05-14T06:53:08.681Z,1.30
2019-05-14T06:55:39.262Z,1.17
2019-05-14T06:58:09.247Z,1.10
2019-05-14T07:00:39.594Z,1.30
2019-05-14T07:03:09.507Z,1.60
2019-05-14T07:05:39.253Z,1.10
2019-05-14T07:08:09.091Z,1.70
2019-05-14T07:10:39.488Z,1.20
2019-05-14T07:13:08.883Z,1.40
2019-05-14T07:15:38.735Z,1.30
2019-05-14T07:18:08.721Z,1.27
2019-05-14T07:20:39.103Z,1.50
2019-05-14T07:23:08.964Z,1.50
2019-05-14T07:25:39.295Z,1.80
2019-05-14T07:28:08.899Z,1.30
2019-05-14T07:30:39.825Z,1.03
2019-05-14T07:33:09.573Z,1.10
2019-05-14T07:35:38.908Z,1.60
2019-05-14T07:38:08.965Z,1.40
2019-05-14T07:40:39.053Z,1.23
2019-05-14T07:43:09.024Z,1.20
2019-05-14T07:45:38.677Z,1.23
2019-05-14T07:48:09.538Z,1.40
2019-05-14T07:50:39.995Z,1.20
2019-05-14T07:53:09.925Z,1.20
2019-05-14T07:55:39.088Z,1.10
2019-05-14T07:58:09.022Z,1.30
2019-05-14T08:00:40.273Z,1.13
2019-05-14T08:03:08.938Z,1.03
2019-05-14T08:05:38.976Z,1.00
2019-05-14T08:08:08.402Z,1.00
2019-05-14T08:10:39.238Z,1.20
2019-05-14T08:13:08.858Z,1.10
2019-05-14T08:15:38.719Z,1.13
2019-05-14T08:18:08.368Z,1.40
2019-05-14T08:20:38.090Z,1.40
2019-05-14T08:23:09.052Z,1.03
2019-05-14T08:25:39.131Z,1.10
2019-05-14T08:28:08.442Z,1.20
2019-05-14T08:30:38.967Z,1.17
2019-05-14T08:33:09.006Z,1.20
2019-05-14T08:35:39.597Z,1.30
2019-05-14T08:38:12.038Z,0.93
2019-05-14T08:40:39.653Z,0.93
2019-05-14T08:43:09.286Z,0.90
2019-05-14T08:45:38.985Z,1.20
2019-05-14T08:48:09.145Z,1.00
2019-05-14T08:50:38.960Z,0.90
2019-05-14T08:53:09.084Z,1.20
2019-05-14T08:55:40.278Z,1.10
2019-05-14T08:58:13.486Z,1.23
2019-05-14T09:00:41.425Z,0.90
2019-05-14T09:03:10.712Z,0.97
2019-05-14T09:05:43.386Z,1.00
2019-05-14T09:08:12.446Z,1.03
2019-05-14T09:10:41.796Z,1.10
2019-05-14T09:13:11.198Z,1.27
2019-05-14T09:15:43.643Z,1.10
2019-05-14T09:18:13.030Z,1.00
2019-05-14T09:20:42.162Z,0.93
2019-05-14T09:23:13.425Z,0.73
2019-05-14T09:25:47.871Z,1.00
2019-05-14T09:28:13.784Z,0.90
2019-05-14T09:30:42.866Z,0.70
2019-05-14T09:33:12.241Z,0.97
2019-05-14T09:35:41.321Z,1.20
2019-05-14T09:38:10.724Z,1.00
2019-05-14T09:40:40.003Z,0.90
2019-05-14T09:43:09.520Z,1.00
2019-05-14T09:45:38.881Z,1.10
2019-05-14T09:48:08.920Z,0.93
2019-05-14T09:50:38.519Z,1.00
2019-05-14T09:53:09.670Z,0.80
2019-05-14T09:55:39.391Z,1.20
2019-05-14T09:58:08.871Z,1.10
2019-05-14T10:00:38.992Z,1.20
2019-05-14T10:03:09.836Z,0.90
2019-05-14T10:05:39.412Z,0.93
2019-05-14T10:08:09.038Z,1.10
2019-05-14T10:10:39.902Z,1.07
2019-05-14T10:13:09.898Z,1.20
2019-05-14T10:15:40.156Z,1.03
2019-05-14T10:18:12.006Z,1.20
2019-05-14T10:20:45.448Z,0.80
2019-05-14T10:23:11.591Z,0.87
2019-05-14T10:25:42.523Z,0.90
2019-05-14T10:28:14.845Z,0.80
2019-05-14T10:30:43.929Z,0.87
2019-05-14T10:33:15.184Z,0.93
2019-05-14T10:35:44.400Z,0.87
2019-05-14T10:38:13.462Z,0.90
2019-05-14T10:40:43.911Z,0.63
2019-05-14T10:43:13.001Z,0.77
2019-05-14T10:45:42.699Z,0.77
2019-05-14T10:48:11.799Z,0.63
2019-05-14T10:50:56.149Z,0.80
2019-05-14T10:53:12.003Z,0.97
2019-05-14T10:55:41.063Z,0.80
2019-05-14T10:58:10.571Z,0.80
2019-05-14T11:00:41.907Z,0.90
2019-05-14T11:03:11.386Z,0.80
2019-05-14T11:05:41.567Z,0.90
2019-05-14T11:08:11.954Z,0.80
2019-05-14T11:10:42.163Z,2.17
2019-05-14T11:13:11.923Z,1.33
2019-05-14T11:15:41.028Z,0.70
2019-05-14T11:18:10.115Z,1.20
2019-05-14T11:20:42.058Z,0.70
2019-05-14T11:23:10.040Z,0.60
2019-05-14T11:25:39.702Z,0.70
2019-05-14T11:28:08.768Z,0.60
2019-05-14T11:30:39.237Z,0.60
2019-05-14T11:33:09.119Z,0.50
2019-05-14T11:35:39.438Z,0.80
2019-05-14T11:38:27.517Z,0.80
2019-05-14T11:40:44.029Z,0.57
2019-05-14T11:43:13.792Z,0.80
2019-05-14T11:45:43.135Z,0.83
2019-05-14T11:48:12.539Z,0.67
2019-05-14T11:50:41.702Z,0.70
2019-05-14T11:53:11.565Z,0.90
2019-05-14T11:55:40.938Z,0.80
2019-05-14T11:58:10.386Z,0.70
2019-05-14T12:00:40.454Z,0.70
2019-05-14T12:03:09.647Z,0.50
2019-05-14T12:05:40.611Z,0.50
2019-05-14T12:08:09.728Z,0.70
2019-05-14T12:10:39.127Z,0.80
2019-05-14T12:13:08.743Z,0.70
2019-05-14T12:15:38.840Z,1.33
2019-05-14T12:18:10.288Z,0.90
2019-05-14T12:20:39.766Z,0.60
2019-05-14T12:23:09.629Z,0.80
2019-05-14T12:25:39.005Z,1.20
2019-05-14T12:28:13.660Z,0.83
2019-05-14T12:30:39.691Z,0.70
2019-05-14T12:33:09.193Z,0.80
2019-05-14T12:35:40.336Z,0.60
2019-05-14T12:38:10.103Z,0.70
2019-05-14T12:40:39.639Z,0.70
2019-05-14T12:43:09.590Z,0.73
2019-05-14T12:45:39.588Z,0.80
2019-05-14T12:48:09.687Z,0.60
2019-05-14T12:50:39.353Z,0.70
2019-05-14T12:53:08.615Z,0.80
2019-05-14T12:55:40.119Z,0.60
2019-05-14T12:58:09.226Z,0.80
2019-05-14T13:00:39.534Z,0.60
2019-05-14T13:03:09.383Z,0.70
2019-05-14T13:05:38.791Z,0.80
2019-05-14T13:08:11.372Z,0.83
2019-05-14T13:10:39.119Z,0.80
2019-05-14T13:13:08.582Z,0.70
2019-05-14T13:15:39.264Z,0.87
2019-05-14T13:18:08.845Z,0.80
2019-05-14T13:20:42.010Z,0.60
2019-05-14T13:23:11.085Z,0.73
2019-05-14T13:25:40.496Z,0.60
2019-05-14T13:28:09.691Z,0.80
2019-05-14T13:30:39.060Z,0.60
2019-05-14T13:33:08.904Z,0.70
2019-05-14T13:35:39.093Z,0.70
2019-05-14T13:38:13.912Z,0.80
2019-05-14T13:40:39.676Z,0.60
2019-05-14T13:43:09.817Z,0.80
2019-05-14T13:45:39.407Z,0.67
2019-05-14T13:48:08.668Z,0.83
2019-05-14T13:50:40.049Z,0.80
2019-05-14T13:53:12.810Z,0.97
2019-05-14T13:55:45.495Z,0.80
2019-05-14T13:58:11.961Z,0.90
2019-05-14T14:00:41.840Z,0.70
2019-05-14T14:03:10.896Z,0.80
2019-05-14T14:05:40.372Z,0.70
2019-05-14T14:08:09.851Z,0.90
2019-05-14T14:10:44.805Z,0.90
2019-05-14T14:13:11.165Z,0.70
2019-05-14T14:15:40.975Z,0.83
2019-05-14T14:18:10.052Z,0.60
2019-05-14T14:20:39.488Z,0.80
2019-05-14T14:23:21.858Z,0.80
2019-05-14T14:25:40.177Z,0.60
2019-05-14T14:28:10.079Z,0.80
2019-05-14T14:30:39.620Z,0.60
2019-05-14T14:33:08.803Z,0.60
2019-05-14T14:35:38.828Z,0.60
2019-05-14T14:38:08.824Z,0.77
2019-05-14T14:40:39.512Z,0.80
2019-05-14T14:43:08.996Z,0.80
2019-05-14T14:45:44.681Z,0.90
2019-05-14T14:48:12.358Z,0.97
2019-05-14T14:50:40.165Z,0.80
2019-05-14T14:53:09.823Z,0.90
2019-05-14T14:55:40.194Z,0.57
2019-05-14T14:58:11.525Z,0.80
2019-05-14T15:00:41.348Z,0.70
2019-05-14T15:03:10.411Z,0.90
2019-05-14T15:05:40.223Z,0.80
2019-05-14T15:08:10.272Z,0.90
2019-05-14T15:10:40.080Z,0.70
2019-05-14T15:13:09.560Z,0.80
2019-05-14T15:15:39.448Z,4.47
2019-05-14T15:18:10.128Z,3.00
2019-05-14T15:20:39.523Z,1.00
2019-05-14T15:23:09.984Z,0.90
2019-05-14T15:25:39.714Z,0.97
2019-05-14T15:28:09.550Z,1.03
2019-05-14T15:30:39.583Z,0.70
2019-05-14T15:33:09.390Z,0.83
2019-05-14T15:35:38.943Z,0.70
2019-05-14T15:38:11.380Z,0.73
2019-05-14T15:40:40.389Z,0.80
2019-05-14T15:43:11.807Z,0.70
2019-05-14T15:45:41.420Z,1.53
2019-05-14T15:48:10.566Z,1.00
2019-05-14T15:50:40.132Z,1.90
2019-05-14T15:53:11.307Z,2.50
2019-05-14T15:55:40.731Z,0.93
2019-05-14T15:58:09.835Z,3.13
2019-05-14T16:00:43.417Z,1.33
2019-05-14T16:03:13.907Z,1.00
2019-05-14T16:05:44.735Z,1.50
2019-05-14T16:08:13.880Z,2.10
2019-05-14T16:10:43.634Z,1.03
2019-05-14T16:13:13.171Z,0.93
2019-05-14T16:15:44.096Z,0.80
2019-05-14T16:18:18.474Z,0.60
2019-05-14T16:20:49.934Z,0.73
2019-05-14T16:23:19.239Z,1.37
2019-05-14T16:25:49.760Z,3.80
2019-05-14T16:28:21.944Z,5.60
2019-05-14T16:30:52.130Z,2.50
2019-05-14T16:33:21.898Z,2.00
2019-05-14T16:35:52.305Z,1.60
2019-05-14T16:38:23.423Z,1.97
2019-05-14T16:40:52.980Z,0.80
2019-05-14T16:43:22.113Z,1.20
2019-05-14T16:45:51.266Z,1.03
2019-05-14T16:48:20.509Z,1.20
2019-05-14T16:50:51.584Z,1.60
2019-05-14T16:53:21.943Z,1.13
2019-05-14T16:55:51.072Z,1.00
2019-05-14T16:58:20.213Z,1.00
2019-05-14T17:00:49.658Z,0.90
2019-05-14T17:03:19.332Z,1.30
2019-05-14T17:05:49.622Z,2.00
2019-05-14T17:08:19.755Z,1.50
2019-05-14T17:10:48.958Z,1.20
2019-05-14T17:13:19.468Z,0.80
2019-05-14T17:15:50.897Z,1.30
2019-05-14T17:18:19.999Z,0.97
2019-05-14T17:20:49.151Z,1.40
2019-05-14T17:23:19.242Z,1.30
2019-05-14T17:25:48.812Z,1.70
2019-05-14T17:28:17.991Z,1.40
2019-05-14T17:30:49.120Z,1.40
2019-05-14T17:33:18.605Z,1.17
2019-05-14T17:35:48.380Z,1.70
2019-05-14T17:38:18.500Z,1.80
2019-05-14T17:40:48.825Z,2.10
2019-05-14T17:43:19.468Z,2.30
2019-05-14T17:45:49.303Z,1.30
2019-05-14T17:48:19.255Z,1.23
2019-05-14T17:50:49.160Z,0.90
2019-05-14T17:53:18.669Z,1.80
2019-05-14T17:55:50.746Z,2.43
2019-05-14T17:58:18.999Z,0.97
2019-05-14T18:00:48.660Z,1.30
2019-05-14T18:03:18.474Z,3.57
2019-05-14T18:05:47.715Z,2.20
2019-05-14T18:08:18.511Z,1.23
2019-05-14T18:10:49.763Z,0.70
2019-05-14T18:13:19.743Z,1.50
2019-05-14T18:15:49.092Z,1.30
2019-05-14T18:18:19.084Z,1.10
2019-05-14T18:20:54.483Z,0.70
2019-05-14T18:23:25.111Z,0.80
2019-05-14T18:26:08.073Z,0.70
2019-05-14T18:28:30.938Z,0.80
2019-05-14T18:31:00.339Z,0.60
2019-05-14T18:33:31.350Z,0.60
2019-05-14T18:36:01.406Z,0.73
2019-05-14T18:38:32.415Z,0.70
2019-05-14T18:41:02.126Z,0.60
2019-05-14T18:43:34.933Z,0.90
2019-05-14T18:46:04.388Z,0.80
2019-05-14T18:48:33.807Z,0.70
2019-05-14T18:51:02.871Z,0.80
2019-05-14T18:53:32.351Z,1.00
2019-05-14T18:56:16.550Z,3.03
2019-05-14T18:58:33.787Z,3.00
2019-05-14T19:01:03.204Z,2.43
2019-05-14T19:03:32.320Z,2.07
2019-05-14T19:06:02.114Z,1.73
2019-05-14T19:08:31.499Z,2.03
2019-05-14T19:11:02.493Z,1.77
2019-05-14T19:13:31.547Z,1.53
2019-05-14T19:16:01.273Z,2.67
2019-05-14T19:18:31.016Z,2.10
2019-05-14T19:21:00.121Z,2.00
2019-05-14T19:23:31.011Z,2.27
2019-05-14T19:26:00.500Z,2.20
2019-05-14T19:28:29.597Z,1.67
2019-05-14T19:30:59.610Z,1.30
2019-05-14T19:33:30.419Z,1.30
2019-05-14T19:35:59.611Z,1.10
2019-05-14T19:38:29.983Z,1.20
2019-05-14T19:41:01.469Z,1.10
2019-05-14T19:43:30.747Z,1.00
2019-05-14T19:45:59.865Z,1.03
2019-05-14T19:48:32.778Z,1.00
2019-05-14T19:51:04.018Z,1.10
2019-05-14T19:53:33.215Z,1.17
2019-05-14T19:56:02.735Z,1.10
2019-05-14T19:58:32.076Z,1.20
2019-05-14T20:01:02.370Z,1.10
2019-05-14T20:03:32.037Z,1.30
2019-05-14T20:06:01.670Z,1.30
2019-05-14T20:08:30.861Z,1.80
2019-05-14T20:11:00.591Z,1.53
2019-05-14T20:13:30.763Z,1.40
2019-05-14T20:16:00.113Z,1.30
2019-05-14T20:18:29.919Z,1.57
2019-05-14T20:20:59.262Z,1.83
2019-05-14T20:23:29.381Z,1.50
2019-05-14T20:25:58.833Z,1.30
2019-05-14T20:28:28.015Z,1.40
2019-05-14T20:30:58.632Z,1.70
2019-05-14T20:33:29.701Z,1.80
2019-05-14T20:35:59.076Z,1.57
2019-05-14T20:38:28.243Z,1.40
2019-05-14T20:40:58.108Z,1.20
2019-05-14T20:43:29.060Z,1.20
2019-05-14T20:45:59.425Z,0.90
2019-05-14T20:48:29.163Z,1.10
2019-05-14T20:50:58.899Z,1.10
2019-05-14T20:53:32.734Z,0.90
2019-05-14T20:56:01.826Z,1.00
2019-05-14T20:58:31.945Z,1.00
2019-05-14T21:01:01.120Z,0.90
2019-05-14T21:03:30.178Z,1.10
2019-05-14T21:05:59.193Z,1.30
2019-05-14T21:08:28.362Z,1.17
2019-05-14T21:10:58.734Z,1.20
2019-05-14T21:13:27.917Z,1.23
2019-05-14T21:15:57.050Z,1.20
2019-05-14T21:18:34.686Z,1.00
2019-05-14T21:20:57.029Z,0.90
2019-05-14T21:23:26.137Z,1.10
2019-05-14T21:25:55.189Z,0.90
2019-05-14T21:28:24.239Z,1.40
2019-05-14T21:30:54.331Z,1.20
2019-05-14T21:33:23.387Z,1.10
2019-05-14T21:35:52.444Z,1.00
2019-05-14T21:38:21.544Z,1.27
2019-05-14T21:40:50.627Z,1.40
2019-05-14T21:43:19.739Z,1.23
2019-05-14T21:45:49.041Z,1.70
2019-05-14T21:48:20.013Z,1.60
2019-05-14T21:50:49.006Z,1.47
2019-05-14T21:53:19.127Z,1.47
2019-05-14T21:55:49.359Z,1.70
2019-05-14T21:58:19.417Z,1.67
2019-05-14T22:00:52.744Z,1.30
2019-05-14T22:03:21.901Z,1.60
2019-05-14T22:05:51.544Z,1.37
2019-05-14T22:08:20.932Z,1.40
2019-05-14T22:10:49.972Z,1.13
2019-05-14T22:13:19.042Z,1.40
2019-05-14T22:15:49.404Z,1.37
2019-05-14T22:18:20.861Z,1.50
2019-05-14T22:20:49.564Z,1.30
2019-05-14T22:23:21.221Z,1.40
2019-05-14T22:25:49.411Z,1.50
2019-05-14T22:28:19.091Z,1.70
2019-05-14T22:30:48.334Z,1.50
2019-05-14T22:33:19.076Z,1.60
2019-05-14T22:35:48.658Z,1.70
2019-05-14T22:38:19.993Z,1.47
2019-05-14T22:40:48.899Z,1.50
2019-05-14T22:43:19.057Z,1.27
2019-05-14T22:45:48.231Z,1.30
2019-05-14T22:48:18.734Z,1.50
2019-05-14T22:50:48.686Z,1.40
2019-05-14T22:53:18.043Z,1.57
2019-05-14T22:55:49.108Z,1.43
2019-05-14T22:58:25.475Z,1.67
2019-05-14T23:01:07.020Z,1.50
2019-05-14T23:03:22.430Z,1.30
2019-05-14T23:05:51.613Z,1.63
2019-05-14T23:08:24.371Z,1.30
2019-05-14T23:10:53.501Z,1.30
2019-05-14T23:13:22.985Z,1.70
2019-05-14T23:15:52.370Z,1.73
2019-05-14T23:18:21.911Z,1.50
2019-05-14T23:20:51.092Z,1.40
2019-05-14T23:23:20.193Z,1.50
2019-05-14T23:25:51.337Z,1.93
2019-05-14T23:28:21.447Z,1.63
2019-05-14T23:30:50.551Z,1.47
2019-05-14T23:33:20.690Z,1.53
2019-05-14T23:35:50.786Z,1.40
2019-05-14T23:38:20.059Z,1.67
2019-05-14T23:40:49.562Z,1.63
2019-05-14T23:43:18.689Z,1.63
2019-05-14T23:45:47.808Z,1.53
2019-05-14T23:48:18.850Z,1.60
2019-05-14T23:50:48.809Z,1.50
2019-05-14T23:53:18.608Z,1.80
2019-05-14T23:55:48.208Z,1.60
2019-05-14T23:58:20.619Z,1.70
